Time;durP1;ratioP1;P1;durP2;ratioP2;P2;SDS_P1;SDS_P2;PMS_P1;PMS_P2;Temp;Humidity;BMP_temperature;BMP_pressure;BME280_temperature;BME280_humidity;BME280_pressure;Samples;Min_cycle;Max_cycle;Signal;HPM_P1;HPM_P2
2023/11/17 00:01:12;;;;;;;0.50;0.35;;;7.20;92.40;;;;;;4995323;28;20027;-73
2023/11/17 00:03:38;;;;;;;0.40;0.40;;;7.00;91.80;;;;;;4994378;28;20026;-72
2023/11/17 00:06:04;;;;;;;2.05;0.57;;;7.00;91.80;;;;;;4994286;28;20035;-74
2023/11/17 00:08:32;;;;;;;0.52;0.52;;;6.90;92.00;;;;;;4995180;28;20023;-73
2023/11/17 00:10:57;;;;;;;0.73;0.60;;;6.80;92.10;;;;;;4995076;28;20038;-73
2023/11/17 00:13:23;;;;;;;1.10;0.70;;;6.80;92.20;;;;;;4995040;28;20501;-72
2023/11/17 00:15:50;;;;;;;0.40;0.40;;;6.70;92.20;;;;;;4994112;28;20026;-74
2023/11/17 00:18:15;;;;;;;0.50;0.45;;;6.70;92.20;;;;;;4995029;28;20026;-74
2023/11/17 00:20:41;;;;;;;0.47;0.40;;;6.70;92.40;;;;;;4999530;28;20050;-73
2023/11/17 00:23:06;;;;;;;0.20;0.20;;;6.60;92.20;;;;;;4996228;28;20022;-74
2023/11/17 00:25:33;;;;;;;0.90;0.28;;;6.60;92.20;;;;;;4994506;28;20026;-74
2023/11/17 00:27:58;;;;;;;1.27;0.35;;;6.50;92.00;;;;;;4993578;28;20033;-74
2023/11/17 00:30:24;;;;;;;0.57;0.40;;;6.50;91.60;;;;;;4994605;28;20035;-75
2023/11/17 00:32:49;;;;;;;1.33;0.30;;;6.50;91.90;;;;;;4995049;28;20027;-74
2023/11/17 00:35:15;;;;;;;0.20;0.20;;;6.50;91.90;;;;;;4993680;28;20150;-75
2023/11/17 00:37:43;;;;;;;0.50;0.30;;;6.50;90.30;;;;;;4994943;28;20037;-75
2023/11/17 00:40:10;;;;;;;0.40;0.20;;;6.40;89.00;;;;;;4993492;28;20033;-74
2023/11/17 00:42:35;;;;;;;0.52;0.28;;;6.30;88.40;;;;;;4993531;28;20080;-73
2023/11/17 00:45:01;;;;;;;0.68;0.15;;;6.30;88.90;;;;;;4994576;28;20105;-74
2023/11/17 00:47:27;;;;;;;0.20;0.20;;;6.20;88.50;;;;;;4994539;28;20029;-74
2023/11/17 00:49:52;;;;;;;0.63;0.30;;;6.10;88.90;;;;;;4993066;28;20471;-73
2023/11/17 00:52:18;;;;;;;2.72;0.20;;;6.20;89.20;;;;;;4993484;28;20038;-74
2023/11/17 00:54:47;;;;;;;0.10;0.10;;;6.10;89.30;;;;;;4994597;28;20106;-74
2023/11/17 00:57:12;;;;;;;1.33;0.20;;;6.10;89.60;;;;;;4994491;28;20423;-73
2023/11/17 00:59:38;;;;;;;2.25;0.30;;;6.10;89.90;;;;;;4994308;28;20030;-73
2023/11/17 01:02:08;;;;;;;0.10;0.10;;;6.10;90.10;;;;;;4993450;28;20030;-74
2023/11/17 01:04:33;;;;;;;0.60;0.10;;;6.00;89.70;;;;;;4992919;28;20044;-74
2023/11/17 01:06:59;;;;;;;0.22;0.22;;;6.00;90.10;;;;;;4993018;28;20483;-75
2023/11/17 01:09:25;;;;;;;0.20;0.20;;;6.00;90.20;;;;;;4993130;28;20126;-74
2023/11/17 01:11:53;;;;;;;1.45;0.32;;;5.90;90.00;;;;;;4992936;28;20035;-72
2023/11/17 01:14:19;;;;;;;0.30;0.10;;;5.90;90.20;;;;;;4993566;28;20026;-73
2023/11/17 01:16:45;;;;;;;1.00;0.10;;;5.90;90.40;;;;;;4994074;28;20026;-73
2023/11/17 01:19:11;;;;;;;0.77;0.10;;;5.90;90.20;;;;;;4993111;28;20030;-73
2023/11/17 01:21:36;;;;;;;0.30;0.10;;;5.90;90.20;;;;;;4994394;28;20554;-74
2023/11/17 01:24:05;;;;;;;0.10;0.10;;;5.90;90.80;;;;;;4992614;28;20061;-73
2023/11/17 01:26:31;;;;;;;0.30;0.15;;;5.90;91.00;;;;;;4992977;28;20034;-74
2023/11/17 01:28:57;;;;;;;1.13;0.10;;;6.00;91.00;;;;;;4992926;28;20050;-74
2023/11/17 01:31:22;;;;;;;0.30;0.30;;;6.00;90.60;;;;;;4993879;28;20038;-73
2023/11/17 01:33:48;;;;;;;0.77;0.30;;;6.00;90.50;;;;;;4993759;28;20034;-73
2023/11/17 01:36:18;;;;;;;1.02;0.10;;;6.10;90.10;;;;;;4993753;28;20045;-73
2023/11/17 01:38:44;;;;;;;0.20;0.13;;;6.00;89.00;;;;;;4993929;28;20164;-73
2023/11/17 01:41:10;;;;;;;0.10;0.10;;;6.00;88.40;;;;;;4993806;28;20031;-73
2023/11/17 01:43:35;;;;;;;1.48;0.00;;;6.00;87.90;;;;;;4993709;28;20349;-73
2023/11/17 01:46:02;;;;;;;0.25;0.10;;;6.00;87.70;;;;;;4993600;28;20038;-73
2023/11/17 01:48:28;;;;;;;0.10;0.10;;;6.00;88.10;;;;;;4993847;28;20019;-73
2023/11/17 01:50:54;;;;;;;0.00;0.00;;;6.00;88.40;;;;;;4993337;28;20043;-73
2023/11/17 01:53:20;;;;;;;0.20;0.10;;;6.10;88.60;;;;;;4993591;28;20033;-73
2023/11/17 01:55:46;;;;;;;0.47;0.30;;;6.00;88.40;;;;;;4993552;28;20471;-73
2023/11/17 01:58:12;;;;;;;0.00;0.00;;;6.00;88.30;;;;;;4992573;28;20435;-73
2023/11/17 02:00:38;;;;;;;0.03;0.00;;;6.00;88.20;;;;;;4993597;28;20050;-73
2023/11/17 02:03:05;;;;;;;0.15;0.10;;;6.00;87.60;;;;;;4992518;28;20034;-73
2023/11/17 02:05:33;;;;;;;0.10;0.00;;;6.10;87.70;;;;;;4993563;28;20023;-73
2023/11/17 02:08:19;;;;;;;0.05;0.05;;;6.00;87.60;;;;;;4993565;28;20280;-72
2023/11/17 02:10:56;;;;;;;;;;;6.10;87.20;;;;;;4993951;28;20030;-72
2023/11/17 02:13:47;;;;;;;2.47;0.10;;;6.00;87.30;;;;;;4993804;28;19906;-72
2023/11/17 02:16:17;;;;;;;0.10;0.10;;;5.90;87.10;;;;;;4993487;28;20046;-73
2023/11/17 02:18:49;;;;;;;0.00;0.00;;;6.00;87.10;;;;;;4993706;28;20037;-73
2023/11/17 02:21:17;;;;;;;0.10;0.10;;;6.00;86.90;;;;;;4993765;28;20026;-73
2023/11/17 02:23:46;;;;;;;1.98;0.10;;;6.00;87.40;;;;;;4993480;28;20069;-74
2023/11/17 02:26:42;;;;;;;0.10;0.10;;;5.80;87.70;;;;;;4995725;28;20022;-74
2023/11/17 02:29:23;;;;;;;0.10;0.10;;;5.80;87.30;;;;;;4996887;28;20033;-73
2023/11/17 02:31:51;;;;;;;1.40;0.10;;;5.70;87.80;;;;;;4997094;28;20081;-73
2023/11/17 02:34:17;;;;;;;1.20;0.10;;;5.80;87.70;;;;;;4997046;28;20019;-73
2023/11/17 02:36:45;;;;;;;0.10;0.00;;;5.80;87.70;;;;;;4997088;28;20034;-73
2023/11/17 02:39:14;;;;;;;0.50;0.10;;;5.80;87.90;;;;;;4995736;28;20105;-73
2023/11/17 02:41:56;;;;;;;0.08;0.00;;;5.80;87.80;;;;;;4996828;28;20065;-74
2023/11/17 02:44:23;;;;;;;0.03;0.03;;;5.80;88.10;;;;;;4996923;28;20026;-74
2023/11/17 02:46:58;;;;;;;3.15;0.25;;;5.80;87.90;;;;;;4996849;28;20026;-74
2023/11/17 02:49:29;;;;;;;;;;;5.80;88.20;;;;;;4997117;28;20029;-74
2023/11/17 02:51:55;;;;;;;0.10;0.00;;;5.70;87.90;;;;;;5011803;28;19917;-73
2023/11/17 02:54:27;;;;;;;0.20;0.10;;;5.70;87.80;;;;;;4996541;28;20023;-74
2023/11/17 02:56:54;;;;;;;0.10;0.08;;;5.60;87.80;;;;;;4996653;28;20018;-73
2023/11/17 02:59:21;;;;;;;0.30;0.10;;;5.60;88.10;;;;;;4996596;28;20134;-73
2023/11/17 03:01:50;;;;;;;0.20;0.20;;;5.60;87.90;;;;;;4995528;28;20455;-72
2023/11/17 03:04:16;;;;;;;0.15;0.10;;;5.70;88.10;;;;;;4996355;28;20026;-73
2023/11/17 03:06:50;;;;;;;0.63;0.60;;;5.70;88.10;;;;;;4995397;28;20026;-73
2023/11/17 03:09:21;;;;;;;0.60;0.60;;;5.70;88.30;;;;;;4995293;28;20030;-73
2023/11/17 03:11:49;;;;;;;0.47;0.47;;;5.70;88.30;;;;;;4995324;28;20023;-73
2023/11/17 03:14:15;;;;;;;0.22;0.13;;;5.80;88.20;;;;;;4994917;28;20029;-74
2023/11/17 03:16:41;;;;;;;0.10;0.10;;;5.70;87.50;;;;;;4995087;28;20041;-74
2023/11/17 03:19:13;;;;;;;1.95;0.20;;;5.70;87.20;;;;;;4994951;28;20118;-73
2023/11/17 03:21:42;;;;;;;0.10;0.10;;;5.70;87.40;;;;;;4979455;28;20062;-73
2023/11/17 03:24:14;;;;;;;0.32;0.15;;;5.70;87.70;;;;;;4975151;28;20019;-73
2023/11/17 03:26:42;;;;;;;0.75;0.20;;;5.70;87.30;;;;;;4976461;28;20027;-72
2023/11/17 03:29:08;;;;;;;0.15;0.10;;;5.70;87.10;;;;;;4975203;28;20044;-72
2023/11/17 03:31:33;;;;;;;0.10;0.10;;;5.70;87.00;;;;;;4976464;28;20095;-72
2023/11/17 03:34:01;;;;;;;0.20;0.17;;;5.70;87.10;;;;;;4976510;28;20027;-72
2023/11/17 03:36:26;;;;;;;0.15;0.15;;;5.60;87.40;;;;;;4974895;28;20381;-73
2023/11/17 03:38:55;;;;;;;0.10;0.00;;;5.70;87.50;;;;;;4976430;28;20027;-74
2023/11/17 03:41:22;;;;;;;0.43;0.10;;;5.70;87.00;;;;;;4975025;28;20039;-74
2023/11/17 03:43:51;;;;;;;0.65;0.10;;;5.70;87.30;;;;;;4975004;28;20032;-75
2023/11/17 03:46:16;;;;;;;0.47;0.10;;;5.70;87.10;;;;;;4976213;28;20158;-74
2023/11/17 03:48:42;;;;;;;0.00;0.00;;;5.70;86.90;;;;;;4975052;28;20082;-74
2023/11/17 03:51:08;;;;;;;0.30;0.10;;;5.60;86.30;;;;;;4974597;28;20054;-74
2023/11/17 03:53:35;;;;;;;1.58;0.22;;;5.60;86.10;;;;;;4975109;28;20050;-74
2023/11/17 03:56:02;;;;;;;0.20;0.15;;;5.60;86.60;;;;;;4975833;28;20023;-74
2023/11/17 03:58:27;;;;;;;0.30;0.17;;;5.50;86.40;;;;;;4975009;28;20419;-73
2023/11/17 04:00:54;;;;;;;0.10;0.05;;;5.50;86.10;;;;;;4974783;28;20035;-74
2023/11/17 04:03:20;;;;;;;1.92;1.55;;;5.40;86.50;;;;;;4976128;28;20026;-75
2023/11/17 04:05:46;;;;;;;10.30;7.07;;;5.40;86.50;;;;;;4975045;28;20081;-76
2023/11/17 04:08:16;;;;;;;0.10;0.10;;;5.40;86.40;;;;;;4975507;28;20038;-76
2023/11/17 04:10:45;;;;;;;0.08;0.08;;;5.40;86.10;;;;;;4974994;28;20105;-75
2023/11/17 04:13:11;;;;;;;0.50;0.20;;;5.40;86.50;;;;;;4975058;28;20372;-76
2023/11/17 04:15:37;;;;;;;1.75;0.17;;;5.30;86.30;;;;;;4975943;28;20035;-76
2023/11/17 04:18:03;;;;;;;0.17;0.10;;;5.30;87.00;;;;;;4975915;28;20023;-76
2023/11/17 04:20:29;;;;;;;0.57;0.10;;;5.40;87.50;;;;;;4990834;28;20066;-76
2023/11/17 04:22:55;;;;;;;0.52;0.10;;;5.40;86.90;;;;;;4974716;28;20054;-76
2023/11/17 04:25:22;;;;;;;0.10;0.10;;;5.40;87.00;;;;;;4974863;28;20074;-76
2023/11/17 04:27:48;;;;;;;0.15;0.10;;;5.40;86.90;;;;;;4982213;28;20046;-76
2023/11/17 04:30:13;;;;;;;0.17;0.13;;;5.40;86.50;;;;;;4975718;28;20496;-77
2023/11/17 04:32:39;;;;;;;0.45;0.20;;;5.40;86.30;;;;;;4974320;28;20027;-76
2023/11/17 04:35:06;;;;;;;0.30;0.30;;;5.40;86.20;;;;;;4975480;28;20031;-76
2023/11/17 04:37:31;;;;;;;1.05;0.65;;;5.40;86.20;;;;;;4974332;28;20025;-76
2023/11/17 04:40:01;;;;;;;0.63;0.60;;;5.40;86.60;;;;;;4974482;28;20057;-74
2023/11/17 04:42:27;;;;;;;0.30;0.30;;;5.40;86.60;;;;;;4973633;28;20066;-75
2023/11/17 04:44:52;;;;;;;1.35;0.40;;;5.40;86.60;;;;;;4975290;28;20054;-76
2023/11/17 04:47:18;;;;;;;0.93;0.63;;;5.40;86.70;;;;;;4974840;28;20499;-75
2023/11/17 04:49:45;;;;;;;1.63;0.95;;;5.40;86.90;;;;;;4973305;28;20395;-75
2023/11/17 04:52:11;;;;;;;2.30;1.27;;;5.40;87.10;;;;;;4990108;28;20369;-75
2023/11/17 04:54:36;;;;;;;1.45;0.90;;;5.30;86.80;;;;;;4975167;28;20093;-76
2023/11/17 04:57:02;;;;;;;1.48;1.10;;;5.30;87.00;;;;;;4975052;28;20027;-76
2023/11/17 04:59:28;;;;;;;3.10;1.20;;;5.30;87.00;;;;;;4974774;28;20027;-75
2023/11/17 05:01:53;;;;;;;1.48;0.90;;;5.30;86.80;;;;;;4975039;28;20045;-76
2023/11/17 05:04:19;;;;;;;1.17;0.70;;;5.30;86.80;;;;;;4973743;28;20050;-74
2023/11/17 05:06:45;;;;;;;1.02;0.52;;;5.30;86.90;;;;;;4973977;28;20182;-76
2023/11/17 05:09:12;;;;;;;1.30;0.80;;;5.30;87.10;;;;;;4973223;28;20522;-74
2023/11/17 05:11:41;;;;;;;0.57;0.30;;;5.30;87.10;;;;;;4973921;28;20033;-74
2023/11/17 05:14:07;;;;;;;0.70;0.30;;;5.30;86.60;;;;;;4973889;28;20022;-76
2023/11/17 05:16:37;;;;;;;1.25;0.75;;;5.20;86.50;;;;;;4973693;28;20158;-75
2023/11/17 05:19:06;;;;;;;2.05;0.80;;;5.20;87.20;;;;;;4974088;28;20042;-75
2023/11/17 05:21:32;;;;;;;0.52;0.43;;;5.20;86.90;;;;;;4974856;28;20031;-75
2023/11/17 05:23:59;;;;;;;1.25;0.45;;;5.30;87.00;;;;;;4973657;28;20033;-75
2023/11/17 05:26:25;;;;;;;0.10;0.10;;;5.30;87.70;;;;;;4974074;28;20396;-76
2023/11/17 05:28:50;;;;;;;0.30;0.20;;;5.40;86.30;;;;;;4974390;28;20031;-76
2023/11/17 05:31:18;;;;;;;0.47;0.20;;;5.40;86.60;;;;;;4974644;28;20463;-75
2023/11/17 05:33:44;;;;;;;0.38;0.20;;;5.30;85.90;;;;;;4975391;28;20031;-75
2023/11/17 05:36:09;;;;;;;0.28;0.20;;;5.40;85.90;;;;;;4974556;28;20464;-73
2023/11/17 05:38:35;;;;;;;0.70;0.32;;;5.40;85.90;;;;;;4974980;28;20046;-75
2023/11/17 05:41:02;;;;;;;0.60;0.30;;;5.40;86.00;;;;;;4974611;28;20496;-76
2023/11/17 05:43:28;;;;;;;0.20;0.20;;;5.40;86.10;;;;;;4973422;28;20046;-75
2023/11/17 05:45:56;;;;;;;0.52;0.38;;;5.50;86.60;;;;;;4974505;28;20026;-75
2023/11/17 05:48:21;;;;;;;0.93;0.40;;;5.50;86.10;;;;;;4973860;28;20023;-74
2023/11/17 05:50:47;;;;;;;0.30;0.30;;;5.50;85.80;;;;;;4973257;28;20198;-74
2023/11/17 05:53:13;;;;;;;0.80;0.57;;;5.50;86.00;;;;;;4973620;28;20034;-74
2023/11/17 05:55:38;;;;;;;0.95;0.70;;;5.60;86.10;;;;;;4973930;28;20392;-75
2023/11/17 05:58:04;;;;;;;2.60;1.20;;;5.60;86.00;;;;;;4974378;28;20023;-73
2023/11/17 06:00:31;;;;;;;2.65;1.60;;;5.60;85.50;;;;;;4976375;28;20023;-73
2023/11/17 06:02:56;;;;;;;3.05;1.23;;;5.60;85.50;;;;;;4977083;28;20034;-73
2023/11/17 06:05:23;;;;;;;1.15;0.52;;;5.60;84.50;;;;;;4976971;28;20118;-73
2023/11/17 06:07:49;;;;;;;1.38;0.60;;;5.50;84.50;;;;;;4977456;28;20391;-73
2023/11/17 06:10:15;;;;;;;3.75;2.10;;;5.50;85.20;;;;;;4976919;28;20030;-74
2023/11/17 06:12:41;;;;;;;0.90;0.70;;;5.50;85.40;;;;;;4977991;28;20018;-75
2023/11/17 06:15:07;;;;;;;1.55;0.90;;;5.40;85.80;;;;;;4976986;28;20027;-74
2023/11/17 06:17:35;;;;;;;2.22;0.85;;;5.40;86.20;;;;;;4977151;28;20042;-75
2023/11/17 06:20:03;;;;;;;1.08;0.82;;;5.40;86.00;;;;;;4977970;28;20030;-74
2023/11/17 06:22:28;;;;;;;2.03;1.60;;;5.40;86.10;;;;;;4977836;28;20535;-73
2023/11/17 06:24:54;;;;;;;2.85;1.58;;;5.40;86.10;;;;;;4988549;28;20109;-73
2023/11/17 06:27:19;;;;;;;3.13;1.95;;;5.40;86.30;;;;;;4996542;28;20077;-75
2023/11/17 06:29:45;;;;;;;2.78;1.80;;;5.40;86.20;;;;;;5000568;28;20049;-75
2023/11/17 06:32:11;;;;;;;1.25;1.15;;;5.50;86.50;;;;;;4997300;28;20026;-73
2023/11/17 06:34:38;;;;;;;1.25;0.93;;;5.50;86.10;;;;;;4995732;28;20022;-75
2023/11/17 06:37:05;;;;;;;1.33;0.90;;;5.50;85.90;;;;;;4996924;28;20050;-75
2023/11/17 06:39:31;;;;;;;1.70;1.10;;;5.50;86.00;;;;;;4995664;28;20018;-75
2023/11/17 06:41:57;;;;;;;1.13;0.93;;;5.50;86.10;;;;;;4995563;28;20483;-73
2023/11/17 06:44:25;;;;;;;1.40;1.20;;;5.60;86.10;;;;;;4995781;28;20038;-73
2023/11/17 06:46:51;;;;;;;1.13;1.02;;;5.60;86.10;;;;;;4995668;28;20026;-73
2023/11/17 06:49:19;;;;;;;1.00;0.80;;;5.50;85.80;;;;;;4995706;28;20029;-73
2023/11/17 06:51:50;;;;;;;0.82;0.60;;;5.60;85.40;;;;;;4995494;28;20594;-74
2023/11/17 06:54:18;;;;;;;0.55;0.55;;;5.50;85.40;;;;;;4997107;28;20077;-75
2023/11/17 06:56:45;;;;;;;1.45;0.75;;;5.60;84.80;;;;;;4996898;28;20497;-75
2023/11/17 06:59:15;;;;;;;4.43;1.60;;;5.50;85.10;;;;;;4997735;28;20027;-74
2023/11/17 07:01:43;;;;;;;1.77;1.15;;;5.40;85.30;;;;;;4998989;28;20038;-74
2023/11/17 07:04:12;;;;;;;1.48;1.00;;;5.40;85.20;;;;;;4996999;28;20477;-75
2023/11/17 07:06:38;;;;;;;1.10;0.95;;;5.40;85.30;;;;;;4996921;28;20029;-74
2023/11/17 07:09:17;;;;;;;2.97;1.73;;;5.40;85.60;;;;;;4998940;28;20022;-74
2023/11/17 07:11:58;;;;;;;4.50;1.08;;;5.40;85.70;;;;;;4994664;28;20057;-73
2023/11/17 07:14:25;;;;;;;2.17;1.13;;;5.40;85.30;;;;;;4995068;28;20023;-74
2023/11/17 07:16:52;;;;;;;2.50;0.70;;;5.40;85.70;;;;;;4994825;28;20023;-73
2023/11/17 07:19:19;;;;;;;1.10;0.90;;;5.40;85.20;;;;;;4994989;28;20026;-73
2023/11/17 07:21:47;;;;;;;2.38;1.10;;;5.40;85.50;;;;;;4995109;28;20475;-74
2023/11/17 07:24:14;;;;;;;0.93;0.70;;;5.30;86.20;;;;;;4994843;28;20030;-73
2023/11/17 07:26:40;;;;;;;2.25;1.33;;;5.30;85.80;;;;;;4995175;28;20026;-75
2023/11/17 07:29:06;;;;;;;2.33;2.00;;;5.30;86.20;;;;;;4995218;28;20089;-72
2023/11/17 07:31:37;;;;;;;2.83;1.35;;;5.20;86.10;;;;;;4995063;28;20468;-73
2023/11/17 07:34:07;;;;;;;1.55;1.25;;;5.20;86.20;;;;;;4994996;28;20356;-73
2023/11/17 07:36:39;;;;;;;2.33;0.95;;;5.10;85.90;;;;;;4995024;28;20034;-75
2023/11/17 07:39:06;;;;;;;1.05;0.80;;;5.00;86.20;;;;;;4994855;28;20026;-74
2023/11/17 07:41:33;;;;;;;2.58;0.75;;;5.00;86.90;;;;;;4995184;28;20031;-74
2023/11/17 07:43:59;;;;;;;0.57;0.50;;;5.00;87.10;;;;;;4995215;28;20129;-75
2023/11/17 07:46:25;;;;;;;1.25;0.82;;;5.00;86.60;;;;;;4994932;28;20053;-75
2023/11/17 07:48:51;;;;;;;1.00;0.47;;;4.90;86.70;;;;;;4995111;28;20060;-75
2023/11/17 07:51:17;;;;;;;0.73;0.70;;;5.00;87.30;;;;;;4995119;28;20046;-75
2023/11/17 07:53:43;;;;;;;2.85;1.23;;;5.00;86.20;;;;;;4997364;28;20018;-74
2023/11/17 07:56:11;;;;;;;0.65;0.63;;;4.90;86.40;;;;;;5003933;28;20030;-76
2023/11/17 07:58:37;;;;;;;0.80;0.70;;;4.90;86.40;;;;;;4995868;28;20069;-75
2023/11/17 08:01:06;;;;;;;0.50;0.50;;;4.90;86.10;;;;;;4994405;28;20037;-76
2023/11/17 08:03:32;;;;;;;0.70;0.50;;;4.90;86.00;;;;;;4994043;28;20033;-75
2023/11/17 08:05:58;;;;;;;1.10;0.80;;;4.80;86.10;;;;;;4994193;28;20022;-75
2023/11/17 08:08:23;;;;;;;1.20;0.80;;;4.90;86.70;;;;;;4994175;28;20034;-75
2023/11/17 08:10:49;;;;;;;0.88;0.70;;;4.90;86.30;;;;;;4994070;28;20033;-74
2023/11/17 08:13:15;;;;;;;1.23;0.70;;;5.00;86.10;;;;;;4995268;28;20023;-76
2023/11/17 08:15:41;;;;;;;0.80;0.68;;;5.00;86.30;;;;;;4996295;28;20077;-75
2023/11/17 08:18:08;;;;;;;1.00;0.80;;;5.00;86.40;;;;;;4995421;28;20546;-75
2023/11/17 08:20:38;;;;;;;3.05;1.30;;;5.10;86.40;;;;;;4998153;28;20076;-74
2023/11/17 08:23:04;;;;;;;11.77;1.58;;;5.20;87.50;;;;;;4993620;28;20461;-76
2023/11/17 08:25:30;;;;;;;2.42;1.17;;;5.90;94.90;;;;;;4994070;28;20118;-78
2023/11/17 08:27:58;;;;;;;2.47;0.90;;;6.20;91.30;;;;;;4997077;28;20038;-76
2023/11/17 08:30:24;;;;;;;2.65;1.00;;;6.40;87.80;;;;;;4996227;28;20045;-77
2023/11/17 08:32:50;;;;;;;1.73;0.85;;;6.40;83.40;;;;;;4996721;28;20637;-79
2023/11/17 08:35:16;;;;;;;5.15;0.88;;;6.50;82.60;;;;;;4999445;28;20093;-82
2023/11/17 08:37:42;;;;;;;2.80;1.02;;;6.60;81.30;;;;;;4995044;28;20023;-78
2023/11/17 08:40:11;;;;;;;3.60;0.80;;;6.70;79.70;;;;;;4996172;28;20026;-77
2023/11/17 08:42:37;;;;;;;1.05;0.90;;;6.50;78.70;;;;;;4994612;28;20042;-77
2023/11/17 08:45:09;;;;;;;1.30;0.50;;;6.50;81.70;;;;;;4996096;28;20034;-79
2023/11/17 08:47:39;;;;;;;0.68;0.60;;;6.60;79.70;;;;;;4995058;28;20387;-76
2023/11/17 08:50:08;;;;;;;0.80;0.60;;;6.60;77.70;;;;;;4993979;28;20068;-79
2023/11/17 08:52:35;;;;;;;2.08;0.65;;;6.30;79.40;;;;;;4994090;28;20034;-78
2023/11/17 08:55:04;;;;;;;0.73;0.47;;;6.10;80.40;;;;;;4994199;28;20029;-77
2023/11/17 08:57:30;;;;;;;0.63;0.60;;;6.30;80.60;;;;;;4994975;28;20387;-74
2023/11/17 08:59:55;;;;;;;2.58;0.77;;;6.20;80.20;;;;;;4994390;28;20030;-81
2023/11/17 09:02:25;;;;;;;2.13;0.82;;;6.30;80.40;;;;;;4993767;28;20065;-76
2023/11/17 09:04:52;;;;;;;1.88;1.00;;;6.40;79.50;;;;;;4993919;28;20025;-77
2023/11/17 09:07:18;;;;;;;1.95;0.90;;;6.30;79.80;;;;;;4994140;28;20038;-74
2023/11/17 09:09:43;;;;;;;3.72;1.30;;;6.20;79.40;;;;;;4993635;28;20366;-74
2023/11/17 09:12:09;;;;;;;2.72;0.70;;;6.00;81.00;;;;;;4994028;28;20037;-75
2023/11/17 09:14:36;;;;;;;1.05;0.70;;;5.60;83.10;;;;;;4993365;28;20058;-74
2023/11/17 09:17:06;;;;;;;1.40;0.77;;;5.80;82.50;;;;;;4993018;28;20030;-74
2023/11/17 09:19:36;;;;;;;0.43;0.43;;;5.70;82.50;;;;;;4994374;28;20027;-76
2023/11/17 09:22:02;;;;;;;0.52;0.40;;;5.80;82.50;;;;;;4994326;28;20034;-76
2023/11/17 09:24:27;;;;;;;1.20;0.65;;;5.80;81.90;;;;;;4992878;28;20023;-76
2023/11/17 09:26:53;;;;;;;1.30;0.90;;;5.80;81.60;;;;;;4992712;28;20045;-73
2023/11/17 09:29:19;;;;;;;0.70;0.45;;;5.80;81.80;;;;;;4993926;28;20026;-73
2023/11/17 09:31:44;;;;;;;0.45;0.40;;;5.80;82.40;;;;;;4993830;28;20034;-73
2023/11/17 09:34:10;;;;;;;0.68;0.60;;;5.90;81.90;;;;;;4992112;28;20072;-75
2023/11/17 09:36:40;;;;;;;1.05;0.70;;;5.80;81.30;;;;;;4992240;28;20033;-75
2023/11/17 09:39:09;;;;;;;1.67;1.02;;;5.70;82.30;;;;;;4997391;28;20483;-74
2023/11/17 09:41:38;;;;;;;2.35;1.00;;;5.60;83.20;;;;;;4992376;28;20034;-74
2023/11/17 09:44:06;;;;;;;0.73;0.50;;;5.70;83.40;;;;;;4993846;28;20076;-73
2023/11/17 09:46:37;;;;;;;0.47;0.47;;;5.70;83.30;;;;;;4992537;28;20033;-74
2023/11/17 09:49:05;;;;;;;0.60;0.50;;;5.80;83.60;;;;;;4992218;28;20029;-74
2023/11/17 09:51:32;;;;;;;1.60;0.50;;;5.80;83.10;;;;;;4993402;28;20048;-73
2023/11/17 09:54:02;;;;;;;0.45;0.45;;;5.80;82.90;;;;;;4993552;28;20046;-76
2023/11/17 09:56:28;;;;;;;0.60;0.50;;;6.00;83.10;;;;;;4992104;28;20022;-74
2023/11/17 09:58:57;;;;;;;2.00;0.90;;;5.90;83.00;;;;;;4993264;28;20153;-73
2023/11/17 10:01:27;;;;;;;2.97;2.00;;;6.00;83.20;;;;;;4992294;28;20038;-74
2023/11/17 10:03:58;;;;;;;3.65;2.92;;;5.90;82.60;;;;;;4992313;28;20463;-74
2023/11/17 10:06:25;;;;;;;2.28;1.88;;;5.90;82.70;;;;;;4992393;28;20034;-75
2023/11/17 10:08:52;;;;;;;1.92;1.67;;;5.90;82.10;;;;;;4992526;28;20022;-74
2023/11/17 10:11:20;;;;;;;1.42;0.85;;;6.00;82.10;;;;;;4991996;28;20058;-73
2023/11/17 10:13:47;;;;;;;1.27;0.95;;;6.00;80.60;;;;;;4992332;28;20062;-73
2023/11/17 10:16:16;;;;;;;0.60;0.50;;;5.90;81.30;;;;;;4992155;28;20026;-74
2023/11/17 10:18:43;;;;;;;0.75;0.50;;;5.80;81.00;;;;;;4992247;28;20471;-74
2023/11/17 10:21:10;;;;;;;0.65;0.60;;;5.80;81.60;;;;;;4992284;28;20035;-75
2023/11/17 10:23:38;;;;;;;1.52;1.05;;;5.60;83.20;;;;;;4992228;28;20117;-73
2023/11/17 10:26:04;;;;;;;2.47;1.35;;;5.60;83.20;;;;;;4976563;28;20038;-75
2023/11/17 10:28:35;;;;;;;1.73;1.20;;;5.60;83.60;;;;;;4993018;28;20646;-76
2023/11/17 10:31:05;;;;;;;1.98;1.17;;;5.60;83.30;;;;;;4991025;28;20030;-76
2023/11/17 10:33:33;;;;;;;2.30;1.00;;;5.70;83.50;;;;;;4990813;28;20435;-75
2023/11/17 10:36:04;;;;;;;2.20;0.80;;;5.80;82.70;;;;;;4992345;28;20080;-76
2023/11/17 10:38:40;;;;;;;0.95;0.80;;;5.80;82.20;;;;;;4992322;28;20018;-74
2023/11/17 10:41:30;;;;;;;3.17;2.15;;;5.80;82.70;;;;;;4993144;28;20085;-75
2023/11/17 10:44:01;;;;;;;1.25;1.00;;;5.90;82.30;;;;;;4992561;28;20034;-74
2023/11/17 10:46:31;;;;;;;1.83;0.52;;;5.90;82.50;;;;;;4993644;28;20022;-75
2023/11/17 10:49:00;;;;;;;1.50;0.95;;;5.80;82.50;;;;;;4996388;28;20386;-75
2023/11/17 10:51:27;;;;;;;0.60;0.50;;;5.80;82.60;;;;;;4995744;28;20060;-78
2023/11/17 10:54:06;;;;;;;3.88;2.25;;;5.60;81.70;;;;;;4996062;28;20118;-75
2023/11/17 10:56:33;;;;;;;3.45;1.88;;;5.60;82.30;;;;;;4997094;28;20113;-77
2023/11/17 10:59:00;;;;;;;6.03;3.60;;;5.60;83.50;;;;;;4997000;28;20050;-74
2023/11/17 11:01:34;;;;;;;3.08;2.13;;;5.80;83.50;;;;;;4996828;28;20077;-78
2023/11/17 11:04:02;;;;;;;1.08;0.73;;;5.80;82.70;;;;;;5000714;28;20030;-78
2023/11/17 11:06:29;;;;;;;1.65;0.77;;;5.80;82.50;;;;;;4995418;28;20064;-77
2023/11/17 11:08:58;;;;;;;2.97;1.38;;;5.90;81.60;;;;;;4995925;28;20185;-76
2023/11/17 11:11:25;;;;;;;1.23;0.40;;;6.00;81.60;;;;;;4994595;28;20037;-75
2023/11/17 11:13:59;;;;;;;0.88;0.70;;;6.10;81.10;;;;;;4995266;28;20484;-76
2023/11/17 11:16:25;;;;;;;0.98;0.80;;;6.20;80.80;;;;;;4995321;28;20034;-77
2023/11/17 11:18:54;;;;;;;1.00;0.88;;;6.30;80.50;;;;;;4995165;28;20411;-77
2023/11/17 11:21:21;;;;;;;3.65;2.08;;;6.30;80.90;;;;;;4995170;28;20480;-75
2023/11/17 11:23:49;;;;;;;2.25;1.20;;;6.30;82.00;;;;;;4996096;28;20033;-76
2023/11/17 11:26:17;;;;;;;1.55;1.40;;;6.30;81.80;;;;;;5000562;28;20073;-78
2023/11/17 11:28:45;;;;;;;1.55;1.10;;;6.40;81.70;;;;;;5000775;28;20081;-77
2023/11/17 11:31:15;;;;;;;1.67;1.20;;;6.60;81.50;;;;;;4984434;28;20121;-77
2023/11/17 11:33:42;;;;;;;0.73;0.52;;;6.60;81.50;;;;;;5000825;28;20049;-77
2023/11/17 11:36:12;;;;;;;1.70;1.30;;;6.70;80.30;;;;;;4981032;28;20081;-77
2023/11/17 11:38:41;;;;;;;2.50;0.82;;;6.70;80.10;;;;;;4995109;28;20113;-76
2023/11/17 11:41:11;;;;;;;0.90;0.60;;;6.70;80.20;;;;;;4995109;28;20091;-76
2023/11/17 11:43:41;;;;;;;1.10;0.65;;;6.70;79.10;;;;;;4995005;28;20471;-76
2023/11/17 11:46:10;;;;;;;0.95;0.60;;;6.70;80.80;;;;;;4994900;28;20493;-77
2023/11/17 11:48:38;;;;;;;1.27;1.00;;;6.60;80.20;;;;;;4995027;28;20119;-76
2023/11/17 11:51:12;;;;;;;0.80;0.70;;;6.60;80.20;;;;;;4994377;28;20138;-77
2023/11/17 11:53:47;;;;;;;1.15;0.60;;;6.70;80.10;;;;;;4994073;28;20057;-77
2023/11/17 11:56:18;;;;;;;;;;;6.60;80.90;;;;;;4995863;28;20030;-76
2023/11/17 11:58:49;;;;;;;2.15;1.17;;;6.60;80.40;;;;;;4994345;28;19906;-77
2023/11/17 12:01:19;;;;;;;3.42;2.10;;;6.50;81.30;;;;;;4995080;28;20034;-76
2023/11/17 12:03:58;;;;;;;7.68;5.20;;;6.50;81.70;;;;;;4980438;28;20483;-75
2023/11/17 12:06:29;;;;;;;1.83;1.30;;;6.60;81.60;;;;;;4995632;28;20034;-75
2023/11/17 12:09:09;;;;;;;3.45;2.60;;;6.60;80.00;;;;;;4995615;28;20108;-76
2023/11/17 12:11:37;;;;;;;1.00;0.90;;;6.60;80.20;;;;;;4994301;28;20078;-75
2023/11/17 12:14:10;;;;;;;0.85;0.73;;;6.60;81.00;;;;;;4995240;28;20034;-76
2023/11/17 12:16:39;;;;;;;1.17;0.90;;;6.60;79.20;;;;;;4993663;28;20134;-76
2023/11/17 12:19:16;;;;;;;1.27;1.00;;;6.60;79.70;;;;;;4993819;28;20022;-77
2023/11/17 12:22:03;;;;;;;0.85;0.80;;;6.60;81.00;;;;;;4994527;28;20383;-74
2023/11/17 12:24:30;;;;;;;2.15;0.70;;;6.70;81.20;;;;;;4993574;28;20022;-77
2023/11/17 12:26:57;;;;;;;1.40;0.77;;;6.70;79.40;;;;;;4993464;28;20435;-76
2023/11/17 12:29:31;;;;;;;1.88;1.30;;;6.70;79.50;;;;;;4994099;28;20023;-77
2023/11/17 12:31:59;;;;;;;1.58;1.02;;;6.70;79.40;;;;;;4983527;28;20034;-76
2023/11/17 12:34:26;;;;;;;0.80;0.80;;;6.70;79.50;;;;;;4993856;28;20081;-76
2023/11/17 12:36:54;;;;;;;1.48;1.10;;;6.60;80.40;;;;;;4978004;28;20026;-75
2023/11/17 12:39:20;;;;;;;1.58;1.00;;;6.60;81.10;;;;;;4993986;28;20026;-75
2023/11/17 12:41:51;;;;;;;1.88;1.10;;;6.60;81.30;;;;;;4994022;28;20089;-78
2023/11/17 12:44:17;;;;;;;3.15;1.10;;;6.50;81.40;;;;;;4994371;28;20041;-77
2023/11/17 12:46:44;;;;;;;1.60;0.65;;;6.30;82.40;;;;;;4977433;28;20058;-77
2023/11/17 12:49:12;;;;;;;1.13;0.80;;;6.40;82.80;;;;;;4993726;28;20033;-77
2023/11/17 12:51:40;;;;;;;0.55;0.50;;;6.40;83.10;;;;;;4992955;28;20060;-78
2023/11/17 12:54:06;;;;;;;0.88;0.70;;;6.40;82.60;;;;;;4976506;28;20037;-78
2023/11/17 12:56:32;;;;;;;0.60;0.47;;;6.40;83.40;;;;;;4993603;28;20022;-77
2023/11/17 12:58:58;;;;;;;0.88;0.68;;;6.40;83.10;;;;;;4993360;28;20069;-76
2023/11/17 13:01:28;;;;;;;1.58;0.60;;;6.50;82.60;;;;;;4993444;28;20065;-77